Time;durP1;ratioP1;P1;durP2;ratioP2;P2;SDS_P1;SDS_P2;PMS_P1;PMS_P2;Temp;Humidity;BMP_temperature;BMP_pressure;BME280_temperature;BME280_humidity;BME280_pressure;Samples;Min_cycle;Max_cycle;Signal;HPM_P1;HPM_P2
2021/07/12 00:00:36;;;;;;;8.15;7.45;;;25.70;69.10;;;;;;4946824;29;20485;-92
2021/07/12 00:03:03;;;;;;;9.00;7.65;;;25.70;69.10;;;;;;4956252;29;20027;-91
2021/07/12 00:05:31;;;;;;;8.75;7.85;;;25.70;68.90;;;;;;4938901;29;20041;-91
2021/07/12 00:07:57;;;;;;;8.60;7.70;;;25.70;68.90;;;;;;4938800;29;20039;-92
2021/07/12 00:10:25;;;;;;;8.73;7.95;;;25.70;69.00;;;;;;4939127;29;20032;-91
2021/07/12 00:12:51;;;;;;;8.35;7.55;;;25.70;69.20;;;;;;4938619;29;20126;-92
2021/07/12 00:15:19;;;;;;;8.20;7.47;;;25.70;69.40;;;;;;4938645;29;20483;-93
2021/07/12 00:17:45;;;;;;;7.97;7.28;;;25.60;69.30;;;;;;4945840;29;20038;-91
2021/07/12 00:20:14;;;;;;;7.95;7.20;;;25.60;69.40;;;;;;4943719;29;20043;-92
2021/07/12 00:22:40;;;;;;;7.85;7.05;;;25.50;69.30;;;;;;4943695;29;20090;-92
2021/07/12 00:25:08;;;;;;;7.47;6.78;;;25.50;69.50;;;;;;4947888;29;20043;-91
2021/07/12 00:27:34;;;;;;;7.95;7.20;;;25.50;69.70;;;;;;4955101;29;20031;-92
2021/07/12 00:30:01;;;;;;;8.63;7.82;;;25.40;69.80;;;;;;4956492;29;20023;-91
2021/07/12 00:32:27;;;;;;;9.05;8.23;;;25.40;70.40;;;;;;4951769;29;20085;-91
2021/07/12 00:34:52;;;;;;;8.30;7.40;;;25.30;70.70;;;;;;4943144;29;20031;-91
2021/07/12 00:37:18;;;;;;;7.47;6.78;;;25.30;71.30;;;;;;4942323;29;20034;-91
2021/07/12 00:39:44;;;;;;;7.88;7.07;;;25.30;70.60;;;;;;4942631;29;20027;-91
2021/07/12 00:42:10;;;;;;;8.82;7.25;;;25.30;70.50;;;;;;4942362;29;20027;-92
2021/07/12 00:44:36;;;;;;;7.93;6.93;;;25.30;70.60;;;;;;4942002;29;20434;-92
2021/07/12 00:47:01;;;;;;;7.47;6.78;;;25.30;70.50;;;;;;4942016;29;20028;-92
2021/07/12 00:49:27;;;;;;;7.72;7.03;;;25.20;70.50;;;;;;4942051;29;20395;-92
2021/07/12 00:51:54;;;;;;;7.43;6.72;;;25.20;70.60;;;;;;4942285;29;20027;-92
2021/07/12 00:54:26;;;;;;;7.18;6.47;;;25.20;70.70;;;;;;4959323;28;20095;-92
2021/07/12 00:56:53;;;;;;;6.50;5.85;;;25.20;70.70;;;;;;4942146;29;20024;-92
2021/07/12 00:59:19;;;;;;;7.57;6.88;;;25.20;70.90;;;;;;4942170;29;20038;-93
2021/07/12 01:01:45;;;;;;;9.20;6.40;;;25.20;71.20;;;;;;4942259;29;20027;-91
2021/07/12 01:04:11;;;;;;;7.72;7.03;;;25.10;71.40;;;;;;4942173;29;20059;-91
2021/07/12 01:06:36;;;;;;;7.90;7.10;;;25.10;71.70;;;;;;4942020;29;20514;-91
2021/07/12 01:09:03;;;;;;;8.85;8.05;;;25.00;72.50;;;;;;4942066;29;20115;-91
2021/07/12 01:11:32;;;;;;;7.88;7.07;;;25.10;72.40;;;;;;4942103;29;20027;-92
2021/07/12 01:14:24;;;;;;;8.15;6.82;;;25.00;72.30;;;;;;4941913;29;20031;-92
2021/07/12 01:17:05;;;;;;;7.07;6.35;;;25.10;72.30;;;;;;4913974;28;20086;-92
2021/07/12 01:19:50;;;;;;;7.07;6.47;;;25.10;72.30;;;;;;4942305;29;20056;-92
2021/07/12 01:22:22;;;;;;;7.40;6.70;;;25.20;73.10;;;;;;4942123;29;20027;-92
2021/07/12 01:24:56;;;;;;;7.45;6.75;;;25.10;72.20;;;;;;4942214;29;20065;-92
2021/07/12 01:27:37;;;;;;;7.82;7.13;;;25.20;72.30;;;;;;4942443;29;20031;-92
2021/07/12 01:30:30;;;;;;;7.15;6.45;;;25.10;72.30;;;;;;4942303;29;20032;-92
2021/07/12 01:33:11;;;;;;;6.40;5.80;;;25.00;72.10;;;;;;4942025;29;20102;-92
2021/07/12 01:35:54;;;;;;;7.20;6.50;;;25.00;72.00;;;;;;4958966;29;20142;-91
2021/07/12 01:38:39;;;;;;;;;;;25.00;72.20;;;;;;4942346;29;20027;-92
2021/07/12 01:41:23;;;;;;;6.68;6.07;;;25.00;72.30;;;;;;4940789;29;20303;-92
2021/07/12 01:44:03;;;;;;;6.50;5.88;;;24.90;72.10;;;;;;4942014;29;20446;-92
2021/07/12 01:46:39;;;;;;;6.93;6.22;;;24.80;72.10;;;;;;4959238;29;20027;-91
2021/07/12 01:49:17;;;;;;;6.10;5.60;;;24.80;72.00;;;;;;4946379;29;20031;-91
2021/07/12 01:52:09;;;;;;;7.60;6.90;;;24.80;72.20;;;;;;4957665;29;20023;-90
2021/07/12 01:54:49;;;;;;;7.03;6.32;;;24.80;73.20;;;;;;4959018;29;20029;-92
2021/07/12 01:57:23;;;;;;;8.60;7.57;;;24.70;72.30;;;;;;4956702;29;20027;-91
2021/07/12 02:00:08;;;;;;;9.10;8.25;;;24.80;72.90;;;;;;4967143;29;20112;-92
2021/07/12 02:02:35;;;;;;;9.32;8.48;;;24.70;73.70;;;;;;4942420;29;20394;-92
2021/07/12 02:05:16;;;;;;;9.70;8.85;;;24.60;74.30;;;;;;4941749;29;20469;-92
2021/07/12 02:07:44;;;;;;;8.98;8.20;;;24.50;75.00;;;;;;4941436;29;20027;-91
2021/07/12 02:10:10;;;;;;;8.23;7.53;;;24.50;75.20;;;;;;4941440;29;20023;-93
2021/07/12 02:12:37;;;;;;;9.32;8.23;;;24.40;75.40;;;;;;4941270;29;20058;-92
2021/07/12 02:15:06;;;;;;;10.98;9.98;;;24.40;75.80;;;;;;4958740;29;20035;-91
2021/07/12 02:17:32;;;;;;;10.48;9.48;;;24.40;76.90;;;;;;4941246;29;20110;-93
2021/07/12 02:20:04;;;;;;;10.95;9.85;;;24.40;77.00;;;;;;4941184;29;20024;-92
2021/07/12 02:22:32;;;;;;;10.90;9.77;;;24.30;77.40;;;;;;4958178;29;20027;-93
2021/07/12 02:25:00;;;;;;;10.05;9.10;;;24.30;78.30;;;;;;4941178;29;20039;-92
2021/07/12 02:27:27;;;;;;;9.90;8.90;;;24.30;78.00;;;;;;4957930;28;20126;-92
2021/07/12 02:29:54;;;;;;;11.65;10.60;;;24.30;78.10;;;;;;4943726;29;20031;-92
2021/07/12 02:32:21;;;;;;;14.32;11.32;;;24.30;79.20;;;;;;4955483;28;20066;-91
2021/07/12 02:34:48;;;;;;;11.38;10.38;;;24.20;79.80;;;;;;4959283;29;20027;-92
2021/07/12 02:37:15;;;;;;;12.68;11.57;;;24.20;80.60;;;;;;4956309;29;20027;-92
2021/07/12 02:39:45;;;;;;;10.50;9.50;;;24.10;81.10;;;;;;4943960;29;20027;-92
2021/07/12 02:42:11;;;;;;;9.52;8.60;;;24.10;80.60;;;;;;4958991;29;20027;-93
2021/07/12 02:44:38;;;;;;;8.98;8.07;;;24.10;80.30;;;;;;4940634;29;20068;-93
2021/07/12 02:47:04;;;;;;;9.88;8.98;;;24.10;80.20;;;;;;4941810;29;20082;-92
2021/07/12 02:49:30;;;;;;;12.63;9.25;;;24.10;80.30;;;;;;4940867;29;20035;-92
2021/07/12 02:51:59;;;;;;;8.88;8.07;;;24.20;79.80;;;;;;4940206;29;20471;-92
2021/07/12 02:54:31;;;;;;;9.18;8.38;;;24.20;79.20;;;;;;4957653;29;20038;-92
2021/07/12 02:56:57;;;;;;;9.68;8.88;;;24.20;78.70;;;;;;4939961;29;20027;-93
2021/07/12 02:59:23;;;;;;;9.60;8.60;;;24.30;78.30;;;;;;4957076;28;20484;-93
2021/07/12 03:01:49;;;;;;;9.27;8.38;;;24.40;78.10;;;;;;4940023;29;20035;-93
2021/07/12 03:04:15;;;;;;;8.98;8.10;;;24.40;77.80;;;;;;4956864;28;20114;-92
2021/07/12 03:06:46;;;;;;;10.93;8.60;;;24.40;77.60;;;;;;4939685;29;20474;-93
2021/07/12 03:09:13;;;;;;;10.10;8.57;;;24.40;77.40;;;;;;4940009;29;20035;-93
2021/07/12 03:11:59;;;;;;;12.13;8.15;;;24.50;77.30;;;;;;4939504;29;20079;-93
2021/07/12 03:14:53;;;;;;;8.73;7.93;;;24.60;77.20;;;;;;4939941;29;20031;-93
2021/07/12 03:17:21;;;;;;;8.85;8.05;;;24.60;77.50;;;;;;4939866;29;20042;-93
2021/07/12 03:19:49;;;;;;;8.73;7.97;;;24.60;76.80;;;;;;4956514;28;20019;-94
2021/07/12 03:22:17;;;;;;;8.40;7.60;;;24.70;76.60;;;;;;4939714;29;20082;-93
2021/07/12 03:24:44;;;;;;;8.45;7.75;;;24.70;76.50;;;;;;4957282;28;20114;-93
2021/07/12 03:27:15;;;;;;;9.18;7.10;;;24.70;76.20;;;;;;4956656;28;20039;-93
2021/07/12 03:29:41;;;;;;;9.00;8.10;;;24.80;76.00;;;;;;4939484;29;20027;-93
2021/07/12 03:32:08;;;;;;;8.25;7.43;;;24.90;75.80;;;;;;4939313;28;20475;-93
2021/07/12 03:34:35;;;;;;;8.43;7.63;;;24.90;75.80;;;;;;4939597;29;20086;-93
2021/07/12 03:37:02;;;;;;;8.30;7.50;;;25.00;75.50;;;;;;4939594;29;20027;-93
2021/07/12 03:39:31;;;;;;;8.40;7.50;;;25.10;75.20;;;;;;4939928;29;20039;-93
2021/07/12 03:41:58;;;;;;;8.55;7.60;;;25.10;74.90;;;;;;4939542;29;20031;-94
2021/07/12 03:44:24;;;;;;;8.13;7.38;;;25.20;74.90;;;;;;4939360;29;20036;-92
2021/07/12 03:46:50;;;;;;;8.52;7.78;;;25.20;74.70;;;;;;4939375;29;20031;-91
2021/07/12 03:49:17;;;;;;;8.00;7.20;;;25.30;74.60;;;;;;4939523;29;20028;-93
2021/07/12 03:51:46;;;;;;;11.52;7.60;;;25.40;74.40;;;;;;4956360;28;20036;-92
2021/07/12 03:54:13;;;;;;;7.72;7.03;;;25.50;74.10;;;;;;4941183;29;20031;-94
2021/07/12 03:56:39;;;;;;;7.68;6.85;;;25.50;73.90;;;;;;4955439;29;20469;-93
2021/07/12 03:59:05;;;;;;;8.50;7.70;;;25.60;73.80;;;;;;4956273;29;20031;-93
2021/07/12 04:01:30;;;;;;;7.85;7.05;;;25.70;73.70;;;;;;4959440;29;20031;-92
2021/07/12 04:03:56;;;;;;;9.70;7.72;;;25.70;73.40;;;;;;4958012;29;20043;-93
2021/07/12 04:06:23;;;;;;;8.73;7.85;;;25.80;73.30;;;;;;4969448;28;20024;-93
2021/07/12 04:08:49;;;;;;;9.18;8.27;;;25.90;73.20;;;;;;4943748;29;20528;-94
2021/07/12 04:11:16;;;;;;;9.20;8.30;;;25.90;73.00;;;;;;4946350;29;20031;-93
2021/07/12 04:13:42;;;;;;;9.70;8.70;;;25.90;72.90;;;;;;4942643;29;20023;-93
2021/07/12 04:16:09;;;;;;;8.77;7.88;;;25.90;72.80;;;;;;4961271;28;20073;-93
2021/07/12 04:18:35;;;;;;;9.52;8.55;;;25.90;72.90;;;;;;4943682;29;20035;-93
2021/07/12 04:21:02;;;;;;;8.63;7.90;;;25.80;72.90;;;;;;4943189;29;20051;-93
2021/07/12 04:23:28;;;;;;;10.00;8.80;;;25.80;73.10;;;;;;4942428;29;20055;-93
2021/07/12 04:25:54;;;;;;;9.88;8.90;;;25.80;73.40;;;;;;4961069;28;20874;-93
2021/07/12 04:28:19;;;;;;;9.07;8.25;;;25.80;73.40;;;;;;4942988;29;20478;-90
2021/07/12 04:30:45;;;;;;;8.88;8.15;;;25.90;73.50;;;;;;4943146;29;20487;-93
2021/07/12 04:33:11;;;;;;;9.73;8.82;;;26.00;73.60;;;;;;4944840;29;20093;-93
2021/07/12 04:35:37;;;;;;;9.68;8.88;;;26.00;73.50;;;;;;4943599;29;20113;-93
2021/07/12 04:38:03;;;;;;;10.55;8.63;;;26.00;73.40;;;;;;4942752;29;20467;-93
2021/07/12 04:40:28;;;;;;;10.43;9.52;;;26.10;73.60;;;;;;4943304;29;20031;-94
2021/07/12 04:42:54;;;;;;;10.82;9.85;;;26.10;73.60;;;;;;4942820;29;20035;-92
2021/07/12 04:45:20;;;;;;;10.45;9.52;;;26.20;73.70;;;;;;4943497;29;20042;-92
2021/07/12 04:47:46;;;;;;;12.73;9.90;;;26.30;73.60;;;;;;4943309;29;20027;-93
2021/07/12 04:50:12;;;;;;;11.60;10.52;;;26.30;73.30;;;;;;4960658;28;20455;-94
2021/07/12 04:52:38;;;;;;;11.23;10.13;;;26.40;73.30;;;;;;4942333;29;20401;-93
2021/07/12 04:55:07;;;;;;;12.88;10.75;;;26.40;73.10;;;;;;4942692;29;20069;-94
2021/07/12 04:57:34;;;;;;;10.68;9.77;;;26.50;72.90;;;;;;4942782;29;20031;-94
2021/07/12 05:00:04;;;;;;;9.43;8.52;;;26.50;72.60;;;;;;4941795;29;20023;-93
2021/07/12 05:02:29;;;;;;;12.32;11.23;;;26.70;73.00;;;;;;4960707;28;20062;-93
2021/07/12 05:05:16;;;;;;;;;;;;;;;;;;;;;
2021/07/12 05:07:42;;;;;;;11.32;10.32;;;26.70;72.10;;;;;;4966901;29;20110;-94
2021/07/12 05:10:10;;;;;;;11.65;10.55;;;26.70;72.20;;;;;;4949046;29;20061;-94
2021/07/12 05:12:39;;;;;;;10.75;9.73;;;26.70;72.00;;;;;;4944850;29;20122;-94
2021/07/12 05:15:09;;;;;;;11.10;10.15;;;26.70;72.10;;;;;;4928386;29;20032;-93
2021/07/12 05:17:37;;;;;;;10.23;9.32;;;26.70;72.20;;;;;;4925790;29;20042;-93
2021/07/12 05:20:15;;;;;;;10.68;9.73;;;26.70;72.20;;;;;;4946588;29;20105;-94
2021/07/12 05:22:41;;;;;;;11.80;10.68;;;26.80;71.70;;;;;;4926153;29;20032;-92
2021/07/12 05:25:09;;;;;;;14.38;12.98;;;26.90;71.60;;;;;;4926963;29;20039;-93
2021/07/12 05:27:40;;;;;;;12.02;10.93;;;26.80;71.30;;;;;;4926555;29;20042;-94
2021/07/12 05:30:07;;;;;;;13.48;12.10;;;26.80;71.50;;;;;;4924769;29;20038;-93
2021/07/12 05:32:33;;;;;;;11.50;10.40;;;26.80;72.00;;;;;;4924407;29;20055;-94
2021/07/12 05:34:58;;;;;;;10.02;9.05;;;26.90;71.60;;;;;;4940524;29;20042;-93
2021/07/12 05:37:27;;;;;;;12.80;11.70;;;26.90;71.20;;;;;;4927812;29;20043;-92
2021/07/12 05:39:52;;;;;;;11.93;10.77;;;27.00;71.20;;;;;;4922546;29;20031;-93
2021/07/12 05:42:19;;;;;;;11.10;9.98;;;27.10;71.10;;;;;;4924054;29;20032;-92
2021/07/12 05:44:45;;;;;;;10.27;9.38;;;27.30;70.80;;;;;;4922525;29;20046;-92
2021/07/12 05:47:14;;;;;;;10.48;9.57;;;27.40;70.50;;;;;;4925168;29;20027;-92
2021/07/12 05:49:40;;;;;;;13.35;9.60;;;27.50;70.30;;;;;;4932772;29;20036;-92
2021/07/12 05:52:06;;;;;;;10.45;9.45;;;27.60;70.10;;;;;;4927378;29;20114;-92
2021/07/12 05:54:33;;;;;;;10.27;9.38;;;27.60;70.10;;;;;;4939758;29;20039;-93
2021/07/12 05:57:01;;;;;;;10.05;9.15;;;27.60;70.10;;;;;;4921019;29;20035;-92
2021/07/12 05:59:30;;;;;;;10.68;9.68;;;27.70;70.10;;;;;;4933531;29;20031;-94
2021/07/12 06:01:56;;;;;;;11.38;10.38;;;27.90;70.00;;;;;;4923327;29;20055;-92
2021/07/12 06:04:22;;;;;;;11.07;10.02;;;28.00;69.60;;;;;;4925326;29;20482;-93
2021/07/12 06:06:47;;;;;;;11.85;10.68;;;28.10;69.30;;;;;;4925864;29;20023;-91
2021/07/12 06:09:13;;;;;;;11.30;10.15;;;28.10;69.20;;;;;;4932217;29;20086;-93
2021/07/12 06:11:40;;;;;;;10.93;9.93;;;28.20;69.10;;;;;;4935111;29;20036;-93
2021/07/12 06:14:06;;;;;;;12.65;11.35;;;28.50;69.00;;;;;;4949314;29;20024;-94
2021/07/12 06:16:32;;;;;;;14.00;10.98;;;28.70;68.50;;;;;;4934517;29;20147;-91
2021/07/12 06:18:57;;;;;;;12.13;11.05;;;28.80;68.00;;;;;;4929067;29;20027;-92
2021/07/12 06:21:26;;;;;;;12.48;11.38;;;28.90;67.80;;;;;;4939863;29;20031;-91
2021/07/12 06:23:52;;;;;;;13.00;11.80;;;28.90;67.70;;;;;;4907333;29;20035;-93
2021/07/12 06:26:17;;;;;;;11.30;10.20;;;28.80;67.60;;;;;;4918103;29;20095;-93
2021/07/12 06:28:45;;;;;;;12.00;10.95;;;28.70;68.00;;;;;;4903294;29;20048;-92
2021/07/12 06:31:11;;;;;;;12.68;11.57;;;28.70;68.20;;;;;;4921776;29;20062;-91
2021/07/12 06:33:39;;;;;;;12.63;11.43;;;28.80;68.00;;;;;;4904031;29;20055;-93
2021/07/12 06:36:06;;;;;;;13.57;12.35;;;28.80;68.00;;;;;;4906474;29;20444;-92
2021/07/12 06:38:32;;;;;;;12.52;11.43;;;28.70;68.10;;;;;;4919703;29;20115;-92
2021/07/12 06:40:58;;;;;;;12.68;11.50;;;28.50;68.50;;;;;;4903936;29;20494;-93
2021/07/12 06:43:24;;;;;;;12.73;11.48;;;28.30;68.80;;;;;;4903871;29;20036;-93
2021/07/12 06:45:50;;;;;;;12.52;11.32;;;28.30;69.20;;;;;;4903097;29;20032;-92
2021/07/12 06:48:16;;;;;;;13.35;12.05;;;28.30;69.50;;;;;;4918795;29;20032;-93
2021/07/12 06:50:41;;;;;;;11.80;10.70;;;28.30;69.60;;;;;;4928427;29;20427;-92
2021/07/12 06:53:07;;;;;;;10.82;9.75;;;28.40;69.60;;;;;;4922587;29;20027;-93
2021/07/12 06:55:34;;;;;;;10.38;9.48;;;28.50;69.70;;;;;;4925844;29;20031;-92
2021/07/12 06:58:04;;;;;;;11.38;10.38;;;28.70;69.20;;;;;;4931437;29;20091;-94
2021/07/12 07:00:33;;;;;;;10.55;9.55;;;28.90;68.70;;;;;;4929124;29;20438;-92
2021/07/12 07:03:00;;;;;;;12.10;9.40;;;29.10;68.10;;;;;;4933580;29;20074;-91
2021/07/12 07:05:30;;;;;;;11.00;10.00;;;29.40;67.80;;;;;;4964872;29;20503;-92
2021/07/12 07:07:55;;;;;;;11.60;10.50;;;29.60;67.10;;;;;;4935997;29;20059;-92
2021/07/12 07:10:41;;;;;;;10.50;9.60;;;29.80;66.50;;;;;;4934833;29;20086;-93
2021/07/12 07:13:16;;;;;;;10.25;9.25;;;30.00;66.00;;;;;;4945769;29;20040;-93
2021/07/12 07:15:44;;;;;;;10.40;9.38;;;30.20;65.60;;;;;;4938003;29;20063;-93
2021/07/12 07:18:12;;;;;;;11.35;10.00;;;30.40;65.30;;;;;;4936005;29;20043;-93
2021/07/12 07:20:38;;;;;;;12.77;11.52;;;30.60;64.80;;;;;;4943788;29;20031;-90
2021/07/12 07:23:07;;;;;;;10.63;9.63;;;30.70;64.40;;;;;;4928205;29;20487;-91
2021/07/12 07:25:33;;;;;;;10.48;9.52;;;30.90;64.40;;;;;;4912035;29;20131;-91
2021/07/12 07:27:59;;;;;;;10.10;9.20;;;31.10;63.90;;;;;;4929295;29;20060;-93
2021/07/12 07:30:26;;;;;;;11.07;10.13;;;31.40;63.00;;;;;;4925128;29;20166;-92
2021/07/12 07:32:53;;;;;;;11.25;10.15;;;31.60;62.20;;;;;;4910028;29;20101;-93
2021/07/12 07:35:22;;;;;;;11.63;10.65;;;31.60;61.90;;;;;;4932269;29;20038;-93
2021/07/12 07:37:52;;;;;;;12.55;11.45;;;31.50;61.60;;;;;;4915548;29;20099;-91
2021/07/12 07:40:20;;;;;;;11.13;10.13;;;31.30;61.90;;;;;;4937579;29;20038;-93
2021/07/12 07:42:47;;;;;;;10.63;9.65;;;31.30;62.20;;;;;;4929758;29;20518;-96
2021/07/12 07:45:14;;;;;;;11.25;10.15;;;31.40;62.50;;;;;;4936673;29;20110;-93
2021/07/12 07:47:41;;;;;;;11.35;10.35;;;31.50;62.20;;;;;;4943857;28;20035;-93
2021/07/12 07:50:11;;;;;;;10.38;9.48;;;31.50;61.60;;;;;;4935873;29;20036;-92
2021/07/12 07:52:37;;;;;;;10.98;10.00;;;31.30;61.60;;;;;;4942503;29;20125;-93
2021/07/12 07:55:08;;;;;;;9.60;8.70;;;31.30;61.80;;;;;;4933600;29;20091;-94
2021/07/12 07:57:42;;;;;;;10.65;9.75;;;31.10;62.00;;;;;;4946398;29;20031;-93
2021/07/12 08:00:19;;;;;;;11.45;10.45;;;31.10;62.10;;;;;;4935400;29;20035;-90
2021/07/12 08:02:48;;;;;;;12.05;10.95;;;31.10;62.10;;;;;;4917299;29;20123;-92
2021/07/12 08:05:15;;;;;;;11.88;10.77;;;31.10;62.00;;;;;;4921932;29;20035;-92
2021/07/12 08:07:41;;;;;;;10.15;9.15;;;31.10;62.00;;;;;;4925465;29;20030;-92
2021/07/12 08:10:10;;;;;;;9.82;9.02;;;31.20;61.90;;;;;;4947932;29;20028;-91
2021/07/12 08:12:38;;;;;;;10.80;9.80;;;31.30;61.80;;;;;;4930487;29;20035;-91
2021/07/12 08:15:09;;;;;;;10.10;9.20;;;31.50;61.50;;;;;;4948239;29;20027;-92
2021/07/12 08:17:40;;;;;;;10.02;9.13;;;31.60;61.10;;;;;;4931786;29;20085;-93
2021/07/12 08:20:11;;;;;;;10.13;9.13;;;31.90;60.30;;;;;;4936715;29;20058;-94
2021/07/12 08:22:37;;;;;;;9.23;8.40;;;31.90;59.70;;;;;;4929194;29;20027;-92
2021/07/12 08:25:08;;;;;;;9.25;8.35;;;31.90;59.60;;;;;;4933917;29;20127;-93
2021/07/12 08:27:35;;;;;;;9.13;8.32;;;32.00;58.90;;;;;;4944748;29;20024;-94
2021/07/12 08:30:02;;;;;;;9.50;8.63;;;31.90;58.40;;;;;;4934460;29;20028;-90
2021/07/12 08:32:28;;;;;;;8.90;8.10;;;32.00;58.30;;;;;;4943504;28;20048;-91
2021/07/12 08:34:56;;;;;;;8.95;8.05;;;31.90;58.60;;;;;;4939263;29;20427;-93
2021/07/12 08:37:24;;;;;;;9.98;8.98;;;32.00;58.80;;;;;;4948101;28;20055;-93
2021/07/12 08:39:49;;;;;;;10.40;9.50;;;32.00;58.90;;;;;;4929641;29;20583;-92
2021/07/12 08:42:15;;;;;;;10.73;9.52;;;32.00;58.60;;;;;;4932601;29;20059;-92
2021/07/12 08:44:41;;;;;;;11.63;10.32;;;31.60;58.90;;;;;;4921753;29;20036;-93
2021/07/12 08:47:08;;;;;;;10.52;9.57;;;31.50;59.30;;;;;;4925080;29;20028;-93
2021/07/12 08:49:34;;;;;;;9.60;8.68;;;31.30;59.80;;;;;;4919628;29;20028;-93
2021/07/12 08:52:04;;;;;;;9.63;8.73;;;31.20;60.10;;;;;;4920940;29;20430;-94
2021/07/12 08:54:30;;;;;;;10.55;9.65;;;31.30;60.10;;;;;;4928654;29;20043;-94
2021/07/12 08:56:57;;;;;;;10.88;9.88;;;31.30;59.50;;;;;;4942549;29;20046;-91
2021/07/12 08:59:30;;;;;;;9.50;8.70;;;31.20;59.40;;;;;;4931721;29;20149;-92
2021/07/12 09:02:17;;;;;;;10.40;9.40;;;31.10;59.50;;;;;;4946674;29;20031;-94
2021/07/12 09:04:48;;;;;;;10.55;9.55;;;30.90;60.10;;;;;;4919761;29;20156;-93
2021/07/12 09:07:26;;;;;;;10.43;9.43;;;30.70;60.20;;;;;;4919058;29;20027;-94
2021/07/12 09:10:14;;;;;;;10.27;9.27;;;30.80;60.60;;;;;;4911934;29;20040;-94
2021/07/12 09:12:51;;;;;;;10.70;9.60;;;30.90;60.60;;;;;;4930163;29;20039;-92
2021/07/12 09:15:22;;;;;;;10.27;9.38;;;31.00;60.30;;;;;;4939625;29;20455;-95
2021/07/12 09:17:51;;;;;;;11.95;10.75;;;31.00;60.00;;;;;;4926640;29;20031;-93
2021/07/12 09:20:27;;;;;;;11.02;10.02;;;31.00;60.10;;;;;;4942195;29;20118;-93
2021/07/12 09:22:55;;;;;;;10.27;9.27;;;30.90;59.90;;;;;;4927376;29;20459;-94
2021/07/12 09:25:21;;;;;;;11.07;10.07;;;30.80;60.20;;;;;;4940354;29;20117;-94
2021/07/12 09:27:53;;;;;;;14.38;11.55;;;30.70;60.60;;;;;;4931682;29;20032;-93
2021/07/12 09:30:21;;;;;;;11.82;10.82;;;30.70;60.70;;;;;;4924340;29;20083;-93
2021/07/12 09:32:52;;;;;;;10.95;9.95;;;30.40;61.80;;;;;;4920281;29;20052;-94
2021/07/12 09:35:22;;;;;;;10.32;9.43;;;30.30;61.80;;;;;;4920602;29;20035;-95
2021/07/12 09:37:58;;;;;;;11.30;9.63;;;30.40;62.10;;;;;;4934169;29;20103;-93
2021/07/12 09:40:26;;;;;;;10.65;9.55;;;30.50;61.60;;;;;;4940606;29;20090;-93
2021/07/12 09:42:53;;;;;;;11.48;10.32;;;30.50;61.70;;;;;;4939846;29;20034;-93
2021/07/12 09:45:22;;;;;;;11.02;9.93;;;30.50;61.90;;;;;;4903157;29;20048;-93
2021/07/12 09:47:49;;;;;;;10.73;9.73;;;30.60;61.70;;;;;;4901687;29;20032;-93
2021/07/12 09:50:20;;;;;;;11.05;9.80;;;30.50;61.90;;;;;;4925033;29;20113;-92
2021/07/12 09:53:06;;;;;;;11.43;10.32;;;30.50;62.00;;;;;;4922515;29;20040;-92
2021/07/12 09:55:35;;;;;;;12.18;11.00;;;30.50;62.00;;;;;;4910685;29;20028;-91
2021/07/12 09:58:17;;;;;;;10.90;9.80;;;30.50;61.90;;;;;;4931560;29;20027;-93
2021/07/12 10:00:53;;;;;;;11.95;10.85;;;30.40;62.20;;;;;;4921818;29;20046;-93
2021/07/12 10:03:20;;;;;;;10.82;9.82;;;30.30;62.40;;;;;;4911341;29;20052;-93
2021/07/12 10:05:47;;;;;;;11.15;10.15;;;30.40;62.60;;;;;;4945002;29;20039;-92
2021/07/12 10:08:13;;;;;;;10.68;9.77;;;30.40;62.30;;;;;;4953813;28;20051;-93
2021/07/12 10:10:40;;;;;;;10.85;9.75;;;30.50;62.10;;;;;;4907773;29;20090;-93
2021/07/12 10:13:08;;;;;;;11.52;10.48;;;30.60;61.90;;;;;;4927541;29;20038;-94
2021/07/12 10:15:55;;;;;;;10.23;9.32;;;30.50;62.00;;;;;;4915626;29;20111;-92
2021/07/12 10:18:25;;;;;;;10.43;9.43;;;30.50;62.10;;;;;;4929965;29;20031;-92
2021/07/12 10:20:51;;;;;;;9.73;8.75;;;30.50;61.90;;;;;;4922135;29;20112;-93
2021/07/12 10:23:19;;;;;;;8.63;7.72;;;30.70;61.70;;;;;;4938844;29;20031;-93
2021/07/12 10:25:48;;;;;;;9.18;8.35;;;30.80;60.70;;;;;;4931025;29;20114;-92
2021/07/12 10:28:14;;;;;;;8.38;7.68;;;30.90;60.50;;;;;;4947638;29;20062;-92
2021/07/12 10:30:49;;;;;;;9.45;8.55;;;31.00;59.70;;;;;;4925960;29;20043;-92
2021/07/12 10:33:17;;;;;;;8.18;7.18;;;31.00;58.80;;;;;;4929781;29;20090;-92
2021/07/12 10:35:47;;;;;;;8.20;7.43;;;30.90;59.20;;;;;;4928339;29;20043;-90
2021/07/12 10:38:18;;;;;;;8.15;7.45;;;31.00;58.60;;;;;;4941451;29;20038;-93
2021/07/12 10:41:01;;;;;;;7.90;7.20;;;31.00;58.80;;;;;;4960860;29;20071;-93
2021/07/12 10:43:48;;;;;;;8.10;7.40;;;31.10;58.80;;;;;;4930708;29;20304;-94
2021/07/12 10:46:30;;;;;;;9.63;7.50;;;31.30;57.90;;;;;;4938993;29;20050;-91
2021/07/12 10:49:03;;;;;;;9.10;8.20;;;31.30;56.50;;;;;;4925388;29;20027;-92
2021/07/12 10:51:44;;;;;;;8.13;7.32;;;31.30;56.80;;;;;;4930518;29;20305;-93
2021/07/12 10:54:20;;;;;;;7.88;7.18;;;31.30;57.30;;;;;;4925059;29;20039;-94
2021/07/12 10:57:16;;;;;;;8.63;6.97;;;31.50;57.20;;;;;;4932981;29;20028;-92
2021/07/12 10:59:44;;;;;;;10.10;6.72;;;31.60;56.80;;;;;;4967568;29;20031;-91
2021/07/12 11:02:25;;;;;;;8.55;7.75;;;31.70;56.40;;;;;;4971463;29;20423;-91
2021/07/12 11:05:03;;;;;;;8.32;7.60;;;31.70;55.60;;;;;;4939251;29;20036;-92
2021/07/12 11:07:47;;;;;;;8.32;7.50;;;31.50;55.00;;;;;;4955871;29;20055;-92
2021/07/12 11:10:22;;;;;;;7.78;7.05;;;31.30;55.70;;;;;;4938657;29;20040;-93
2021/07/12 11:13:05;;;;;;;7.68;7.00;;;31.30;56.10;;;;;;4940760;29;20020;-94
2021/07/12 11:15:37;;;;;;;7.38;6.68;;;31.50;56.60;;;;;;4957389;29;20046;-94
2021/07/12 11:18:28;;;;;;;7.13;6.53;;;31.70;56.00;;;;;;4958244;29;20057;-91
2021/07/12 11:21:01;;;;;;;7.40;6.70;;;31.90;55.60;;;;;;4955214;29;20031;-91
2021/07/12 11:23:45;;;;;;;;;;;32.00;56.10;;;;;;4948662;29;20059;-91
2021/07/12 11:26:20;;;;;;;6.40;5.90;;;32.10;54.70;;;;;;4948650;29;19950;-92
2021/07/12 11:28:53;;;;;;;7.10;6.47;;;32.30;55.30;;;;;;4948676;29;20031;-92
2021/07/12 11:31:51;;;;;;;8.15;7.32;;;32.50;54.80;;;;;;4946897;29;20036;-91
2021/07/12 11:34:32;;;;;;;7.82;7.13;;;32.60;53.70;;;;;;4930554;29;20134;-92
2021/07/12 11:36:59;;;;;;;8.15;7.20;;;32.70;54.10;;;;;;4942988;29;20039;-91
2021/07/12 11:39:29;;;;;;;7.03;6.40;;;32.50;53.90;;;;;;4960667;28;20030;-90
2021/07/12 11:41:56;;;;;;;7.57;6.88;;;32.50;54.20;;;;;;4941560;29;20027;-90
2021/07/12 11:44:26;;;;;;;6.80;6.18;;;32.70;54.10;;;;;;4935353;29;20035;-91
2021/07/12 11:46:54;;;;;;;8.05;6.43;;;32.80;53.60;;;;;;4941549;29;20059;-91
2021/07/12 11:49:23;;;;;;;7.35;6.70;;;32.70;53.70;;;;;;4938294;29;20027;-91
2021/07/12 11:51:56;;;;;;;7.47;6.88;;;32.60;53.60;;;;;;4907373;29;20036;-91
2021/07/12 11:54:23;;;;;;;6.63;6.03;;;32.60;53.50;;;;;;4921684;29;20028;-91
2021/07/12 11:57:00;;;;;;;6.55;5.95;;;32.50;53.60;;;;;;4920447;29;20024;-93
2021/07/12 11:59:34;;;;;;;8.25;6.50;;;32.60;53.20;;;;;;4920392;29;20040;-90
2021/07/12 12:02:08;;;;;;;7.30;6.63;;;32.70;52.60;;;;;;4950717;29;20028;-91
2021/07/12 12:04:51;;;;;;;6.35;5.85;;;32.90;53.10;;;;;;4938140;29;20094;-90
2021/07/12 12:07:28;;;;;;;7.50;6.30;;;32.90;51.70;;;;;;4955276;29;20032;-91
2021/07/12 12:09:58;;;;;;;7.43;6.72;;;33.00;52.60;;;;;;4939436;29;20027;-92
2021/07/12 12:12:27;;;;;;;8.38;7.57;;;33.10;52.10;;;;;;4932270;29;20042;-91
2021/07/12 12:14:58;;;;;;;7.43;6.72;;;33.30;51.90;;;;;;4921596;29;20132;-88
2021/07/12 12:17:24;;;;;;;6.78;6.07;;;33.40;51.80;;;;;;4926648;29;20031;-88
2021/07/12 12:20:10;;;;;;;6.93;6.10;;;33.60;51.70;;;;;;4936824;29;20027;-88
2021/07/12 12:22:36;;;;;;;6.72;6.10;;;34.10;51.00;;;;;;4919673;29;20109;-88
2021/07/12 12:25:04;;;;;;;7.38;6.57;;;34.40;51.20;;;;;;4918855;29;20466;-89
2021/07/12 12:27:30;;;;;;;7.57;6.95;;;34.50;51.20;;;;;;4927370;29;20039;-89
2021/07/12 12:29:56;;;;;;;8.60;6.38;;;34.70;51.40;;;;;;4921983;29;20391;-88
2021/07/12 12:32:33;;;;;;;6.95;6.35;;;34.90;51.40;;;;;;4942917;29;20035;-88
2021/07/12 12:35:01;;;;;;;7.03;6.43;;;35.10;49.80;;;;;;4930982;29;20127;-88
2021/07/12 12:37:43;;;;;;;7.40;6.70;;;35.10;50.90;;;;;;4929813;29;20028;-88
2021/07/12 12:40:29;;;;;;;7.20;6.50;;;35.10;50.40;;;;;;4946663;29;20075;-88
2021/07/12 12:42:55;;;;;;;9.57;8.55;;;35.20;51.30;;;;;;4943208;29;20074;-88
2021/07/12 12:50:46;;;;;;;10.70;9.57;;;35.30;52.30;;;;;;4884374;29;20064;-92
2021/07/12 13:10:21;;;;;;;10.63;7.43;;;36.60;48.50;;;;;;4919822;29;20090;-89
2021/07/12 13:20:24;;;;;;;6.40;5.80;;;36.50;48.20;;;;;;4922631;29;20070;-91
2021/07/12 13:22:56;;;;;;;5.93;5.43;;;36.50;47.70;;;;;;4904007;29;20036;-92
2021/07/12 13:25:42;;;;;;;7.00;6.00;;;36.30;47.70;;;;;;4903957;29;20139;-91